TimeCDT,TemperatureF,Dew PointF,Humidity,Sea Level PressureIn,VisibilityMPH,Wind Direction,Wind SpeedMPH,Gust SpeedMPH,PrecipitationIn,Events,Conditions,WindDirDegrees,DateUTC
12:56 AM,71.1,64.9,81,29.99,10.0,NE,3.5,-,N/A,,Scattered Clouds,50,2012-10-07 05:56:00
1:56 AM,71.1,63.0,75,30.00,9.0,NNE,13.8,21.9,N/A,,Scattered Clouds,20,2012-10-07 06:56:00
2:56 AM,69.1,61.0,75,30.01,8.0,NNE,16.1,25.3,N/A,,Overcast,20,2012-10-07 07:56:00
3:56 AM,66.0,60.1,81,30.03,8.0,NNE,15.0,21.9,N/A,,Scattered Clouds,20,2012-10-07 08:56:00
4:25 AM,66.2,60.8,83,30.04,9.0,NNE,13.8,-,N/A,,Mostly Cloudy,20,2012-10-07 09:25:00
4:56 AM,64.9,60.1,84,30.01,8.0,NNE,19.6,-,N/A,,Overcast,30,2012-10-07 09:56:00
5:56 AM,64.0,59.0,84,30.04,8.0,NNE,15.0,25.3,N/A,,Overcast,20,2012-10-07 10:56:00
6:56 AM,64.0,57.9,80,30.06,8.0,North,16.1,23.0,N/A,,Overcast,10,2012-10-07 11:56:00
7:56 AM,63.0,57.0,81,30.09,6.0,North,17.3,23.0,N/A,,Haze,10,2012-10-07 12:56:00
8:56 AM,62.1,55.9,80,30.11,8.0,NNE,12.7,24.2,N/A,,Overcast,30,2012-10-07 13:56:00
9:14 AM,62.6,55.4,77,30.12,8.0,NNE,17.3,24.2,N/A,,Overcast,30,2012-10-07 14:14:00
9:56 AM,62.1,54.0,75,30.13,8.0,North,16.1,23.0,N/A,,Overcast,360,2012-10-07 14:56:00
10:56 AM,63.0,54.0,72,30.14,8.0,NNE,13.8,21.9,N/A,,Overcast,30,2012-10-07 15:56:00
11:56 AM,64.9,54.0,68,30.14,8.0,North,11.5,-,N/A,,Overcast,10,2012-10-07 16:56:00
12:56 PM,66.9,55.0,66,30.13,9.0,NNE,11.5,-,N/A,,Overcast,20,2012-10-07 17:56:00
1:56 PM,69.1,55.0,61,30.10,9.0,North,10.4,-,N/A,,Overcast,10,2012-10-07 18:56:00
2:56 PM,70.0,55.9,61,30.08,10.0,NNE,10.4,-,N/A,,Overcast,20,2012-10-07 19:56:00
3:56 PM,70.0,55.9,61,30.06,10.0,North,11.5,-,N/A,,Overcast,350,2012-10-07 20:56:00
4:56 PM,70.0,55.9,61,30.05,10.0,North,11.5,-,N/A,,Overcast,350,2012-10-07 21:56:00
5:56 PM,69.1,55.0,61,30.06,10.0,North,9.2,-,N/A,,Overcast,10,2012-10-07 22:56:00
6:23 PM,69.8,55.4,60,30.07,10.0,North,9.2,-,N/A,,Overcast,350,2012-10-07 23:23:00
6:56 PM,69.1,55.0,61,30.06,10.0,North,9.2,-,N/A,,Overcast,10,2012-10-07 23:56:00
7:56 PM,68.0,55.0,63,30.08,10.0,North,8.1,-,N/A,,Overcast,350,2012-10-08 00:56:00
8:56 PM,66.9,54.0,63,30.11,10.0,North,11.5,-,N/A,,Overcast,10,2012-10-08 01:56:00
9:56 PM,66.9,53.1,61,30.13,10.0,NNE,12.7,-,N/A,,Overcast,20,2012-10-08 02:56:00
10:56 PM,64.9,52.0,63,30.13,10.0,NNE,12.7,-,N/A,,Overcast,20,2012-10-08 03:56:00
11:44 PM,64.4,51.8,64,30.14,10.0,North,12.7,-,N/A,,Overcast,10,2012-10-08 04:44:00
11:56 PM,64.9,51.1,61,30.14,10.0,North,11.5,-,N/A,,Overcast,10,2012-10-08 04:56:00